sensor_id;sensor_type;location;lat;lon;timestamp;P1;durP1;ratioP1;P2;durP2;ratioP2
2558;SDS011;1289;53.488;10.006;2023-05-25T00:02:22;9.70;;;7.90;;
2558;SDS011;1289;53.488;10.006;2023-05-25T00:04:49;13.70;;;8.80;;
2558;SDS011;1289;53.488;10.006;2023-05-25T00:07:16;12.33;;;8.90;;
2558;SDS011;1289;53.488;10.006;2023-05-25T00:09:43;15.03;;;9.30;;
2558;SDS011;1289;53.488;10.006;2023-05-25T00:12:10;22.17;;;11.20;;
2558;SDS011;1289;53.488;10.006;2023-05-25T00:14:37;19.40;;;10.33;;
2558;SDS011;1289;53.488;10.006;2023-05-25T00:17:05;14.27;;;10.00;;
2558;SDS011;1289;53.488;10.006;2023-05-25T00:19:34;16.20;;;10.00;;
2558;SDS011;1289;53.488;10.006;2023-05-25T00:22:00;11.90;;;8.93;;
2558;SDS011;1289;53.488;10.006;2023-05-25T00:24:27;16.60;;;11.30;;
2558;SDS011;1289;53.488;10.006;2023-05-25T00:26:54;17.77;;;10.80;;
2558;SDS011;1289;53.488;10.006;2023-05-25T00:29:21;17.80;;;11.07;;
2558;SDS011;1289;53.488;10.006;2023-05-25T00:31:48;16.30;;;11.90;;
2558;SDS011;1289;53.488;10.006;2023-05-25T00:34:16;12.03;;;10.27;;
2558;SDS011;1289;53.488;10.006;2023-05-25T00:36:43;13.43;;;11.53;;
2558;SDS011;1289;53.488;10.006;2023-05-25T00:39:12;16.33;;;11.70;;
2558;SDS011;1289;53.488;10.006;2023-05-25T00:41:39;17.10;;;11.00;;
2558;SDS011;1289;53.488;10.006;2023-05-25T00:44:06;13.93;;;11.23;;
2558;SDS011;1289;53.488;10.006;2023-05-25T00:46:33;14.53;;;10.27;;
2558;SDS011;1289;53.488;10.006;2023-05-25T00:49:01;19.37;;;11.33;;
2558;SDS011;1289;53.488;10.006;2023-05-25T00:51:29;14.80;;;10.37;;
2558;SDS011;1289;53.488;10.006;2023-05-25T00:53:57;13.60;;;11.10;;
2558;SDS011;1289;53.488;10.006;2023-05-25T00:56:25;18.53;;;10.43;;
2558;SDS011;1289;53.488;10.006;2023-05-25T00:58:54;17.33;;;11.20;;
2558;SDS011;1289;53.488;10.006;2023-05-25T01:01:23;15.93;;;10.80;;
2558;SDS011;1289;53.488;10.006;2023-05-25T01:03:51;17.13;;;10.47;;
2558;SDS011;1289;53.488;10.006;2023-05-25T01:06:19;21.43;;;11.77;;
2558;SDS011;1289;53.488;10.006;2023-05-25T01:08:48;14.87;;;11.13;;
2558;SDS011;1289;53.488;10.006;2023-05-25T01:11:22;15.30;;;10.50;;
2558;SDS011;1289;53.488;10.006;2023-05-25T01:13:52;16.53;;;10.77;;
2558;SDS011;1289;53.488;10.006;2023-05-25T01:16:19;14.53;;;10.43;;
2558;SDS011;1289;53.488;10.006;2023-05-25T01:18:46;16.93;;;11.20;;
2558;SDS011;1289;53.488;10.006;2023-05-25T01:21:19;15.97;;;10.70;;
2558;SDS011;1289;53.488;10.006;2023-05-25T01:23:49;12.97;;;9.60;;
2558;SDS011;1289;53.488;10.006;2023-05-25T01:26:18;13.90;;;10.50;;
2558;SDS011;1289;53.488;10.006;2023-05-25T01:28:46;16.17;;;10.23;;
2558;SDS011;1289;53.488;10.006;2023-05-25T01:31:16;12.17;;;10.93;;
2558;SDS011;1289;53.488;10.006;2023-05-25T01:33:46;20.50;;;11.33;;
2558;SDS011;1289;53.488;10.006;2023-05-25T01:36:14;11.47;;;9.90;;
2558;SDS011;1289;53.488;10.006;2023-05-25T01:38:42;16.47;;;11.80;;
2558;SDS011;1289;53.488;10.006;2023-05-25T01:41:09;14.93;;;10.10;;
2558;SDS011;1289;53.488;10.006;2023-05-25T01:43:35;13.10;;;9.80;;
2558;SDS011;1289;53.488;10.006;2023-05-25T01:46:05;13.03;;;9.87;;
2558;SDS011;1289;53.488;10.006;2023-05-25T01:48:39;18.13;;;10.10;;
2558;SDS011;1289;53.488;10.006;2023-05-25T01:51:16;10.80;;;9.70;;
2558;SDS011;1289;53.488;10.006;2023-05-25T01:53:50;14.70;;;10.77;;
2558;SDS011;1289;53.488;10.006;2023-05-25T01:56:19;16.20;;;10.10;;
2558;SDS011;1289;53.488;10.006;2023-05-25T01:58:47;16.27;;;9.07;;
2558;SDS011;1289;53.488;10.006;2023-05-25T02:01:15;18.97;;;10.33;;
2558;SDS011;1289;53.488;10.006;2023-05-25T02:03:43;20.07;;;11.43;;
2558;SDS011;1289;53.488;10.006;2023-05-25T02:06:12;16.53;;;10.47;;
2558;SDS011;1289;53.488;10.006;2023-05-25T02:08:41;18.73;;;10.80;;
2558;SDS011;1289;53.488;10.006;2023-05-25T02:11:11;14.90;;;10.07;;
2558;SDS011;1289;53.488;10.006;2023-05-25T02:13:38;12.60;;;10.50;;
2558;SDS011;1289;53.488;10.006;2023-05-25T02:16:05;13.20;;;10.97;;
2558;SDS011;1289;53.488;10.006;2023-05-25T02:18:32;11.63;;;10.37;;
2558;SDS011;1289;53.488;10.006;2023-05-25T02:20:59;14.97;;;9.90;;
2558;SDS011;1289;53.488;10.006;2023-05-25T02:23:25;14.97;;;11.03;;
2558;SDS011;1289;53.488;10.006;2023-05-25T02:25:52;24.10;;;11.30;;
2558;SDS011;1289;53.488;10.006;2023-05-25T02:28:24;18.43;;;12.40;;
2558;SDS011;1289;53.488;10.006;2023-05-25T02:30:50;15.70;;;9.73;;
2558;SDS011;1289;53.488;10.006;2023-05-25T02:33:17;16.00;;;10.60;;
2558;SDS011;1289;53.488;10.006;2023-05-25T02:35:44;12.57;;;9.70;;
2558;SDS011;1289;53.488;10.006;2023-05-25T02:38:11;17.53;;;10.70;;
2558;SDS011;1289;53.488;10.006;2023-05-25T02:40:37;17.60;;;10.73;;
2558;SDS011;1289;53.488;10.006;2023-05-25T02:43:04;15.50;;;10.70;;
2558;SDS011;1289;53.488;10.006;2023-05-25T02:45:32;19.33;;;12.70;;
2558;SDS011;1289;53.488;10.006;2023-05-25T02:47:59;13.30;;;11.27;;
2558;SDS011;1289;53.488;10.006;2023-05-25T02:50:26;20.93;;;11.30;;
2558;SDS011;1289;53.488;10.006;2023-05-25T02:52:55;20.10;;;11.97;;
2558;SDS011;1289;53.488;10.006;2023-05-25T02:55:22;15.80;;;11.53;;
2558;SDS011;1289;53.488;10.006;2023-05-25T02:57:50;15.20;;;10.80;;
2558;SDS011;1289;53.488;10.006;2023-05-25T03:00:34;17.77;;;10.60;;
2558;SDS011;1289;53.488;10.006;2023-05-25T03:03:02;15.40;;;10.90;;
2558;SDS011;1289;53.488;10.006;2023-05-25T03:05:28;19.40;;;11.37;;
2558;SDS011;1289;53.488;10.006;2023-05-25T03:07:59;14.67;;;11.53;;
2558;SDS011;1289;53.488;10.006;2023-05-25T03:10:26;14.37;;;11.00;;
2558;SDS011;1289;53.488;10.006;2023-05-25T03:12:52;14.70;;;12.33;;
2558;SDS011;1289;53.488;10.006;2023-05-25T03:15:19;14.70;;;11.33;;
2558;SDS011;1289;53.488;10.006;2023-05-25T03:17:48;18.30;;;11.93;;
2558;SDS011;1289;53.488;10.006;2023-05-25T03:20:15;16.67;;;11.80;;
2558;SDS011;1289;53.488;10.006;2023-05-25T03:22:45;20.27;;;12.70;;
2558;SDS011;1289;53.488;10.006;2023-05-25T03:25:11;14.30;;;12.90;;
2558;SDS011;1289;53.488;10.006;2023-05-25T03:27:38;15.30;;;12.20;;
2558;SDS011;1289;53.488;10.006;2023-05-25T03:30:07;17.27;;;12.20;;
2558;SDS011;1289;53.488;10.006;2023-05-25T03:32:34;14.63;;;10.37;;
2558;SDS011;1289;53.488;10.006;2023-05-25T03:35:03;14.77;;;12.37;;
2558;SDS011;1289;53.488;10.006;2023-05-25T03:37:30;18.73;;;14.23;;
2558;SDS011;1289;53.488;10.006;2023-05-25T03:39:57;18.10;;;12.27;;
2558;SDS011;1289;53.488;10.006;2023-05-25T03:42:24;18.50;;;12.37;;
2558;SDS011;1289;53.488;10.006;2023-05-25T03:44:50;14.40;;;12.87;;
2558;SDS011;1289;53.488;10.006;2023-05-25T03:47:17;17.60;;;13.30;;
2558;SDS011;1289;53.488;10.006;2023-05-25T03:49:44;18.10;;;13.60;;
2558;SDS011;1289;53.488;10.006;2023-05-25T03:52:12;20.50;;;14.50;;
2558;SDS011;1289;53.488;10.006;2023-05-25T03:54:40;19.90;;;13.40;;
2558;SDS011;1289;53.488;10.006;2023-05-25T03:57:07;19.00;;;13.13;;
2558;SDS011;1289;53.488;10.006;2023-05-25T03:59:34;23.37;;;14.13;;
2558;SDS011;1289;53.488;10.006;2023-05-25T04:02:01;21.70;;;13.77;;
2558;SDS011;1289;53.488;10.006;2023-05-25T04:04:27;21.00;;;13.93;;
2558;SDS011;1289;53.488;10.006;2023-05-25T04:06:54;16.50;;;13.30;;
2558;SDS011;1289;53.488;10.006;2023-05-25T04:09:22;16.37;;;12.50;;
2558;SDS011;1289;53.488;10.006;2023-05-25T04:11:49;18.17;;;11.87;;
2558;SDS011;1289;53.488;10.006;2023-05-25T04:14:16;20.70;;;11.83;;
2558;SDS011;1289;53.488;10.006;2023-05-25T04:16:44;19.50;;;11.23;;
2558;SDS011;1289;53.488;10.006;2023-05-25T04:19:13;19.30;;;11.23;;
2558;SDS011;1289;53.488;10.006;2023-05-25T04:21:40;16.97;;;12.23;;
2558;SDS011;1289;53.488;10.006;2023-05-25T04:24:07;17.17;;;11.10;;
2558;SDS011;1289;53.488;10.006;2023-05-25T04:26:35;14.50;;;11.67;;
2558;SDS011;1289;53.488;10.006;2023-05-25T04:29:03;15.63;;;11.50;;
2558;SDS011;1289;53.488;10.006;2023-05-25T04:31:44;13.70;;;11.57;;
2558;SDS011;1289;53.488;10.006;2023-05-25T04:34:11;15.57;;;11.10;;
2558;SDS011;1289;53.488;10.006;2023-05-25T04:36:42;15.60;;;11.33;;
2558;SDS011;1289;53.488;10.006;2023-05-25T04:39:10;17.07;;;10.50;;
2558;SDS011;1289;53.488;10.006;2023-05-25T04:41:43;19.77;;;10.43;;
2558;SDS011;1289;53.488;10.006;2023-05-25T04:44:11;11.07;;;9.97;;
2558;SDS011;1289;53.488;10.006;2023-05-25T04:46:44;20.03;;;9.37;;
2558;SDS011;1289;53.488;10.006;2023-05-25T04:49:17;17.90;;;11.80;;
2558;SDS011;1289;53.488;10.006;2023-05-25T04:51:44;13.30;;;10.07;;
2558;SDS011;1289;53.488;10.006;2023-05-25T04:54:10;15.07;;;9.80;;
2558;SDS011;1289;53.488;10.006;2023-05-25T04:56:37;14.27;;;9.93;;
2558;SDS011;1289;53.488;10.006;2023-05-25T04:59:05;15.53;;;10.77;;
2558;SDS011;1289;53.488;10.006;2023-05-25T05:01:32;12.90;;;9.07;;
2558;SDS011;1289;53.488;10.006;2023-05-25T05:04:04;11.03;;;8.97;;
2558;SDS011;1289;53.488;10.006;2023-05-25T05:06:31;13.33;;;8.67;;
2558;SDS011;1289;53.488;10.006;2023-05-25T05:08:58;12.30;;;8.50;;
2558;SDS011;1289;53.488;10.006;2023-05-25T05:11:26;12.30;;;9.13;;
2558;SDS011;1289;53.488;10.006;2023-05-25T05:13:53;15.00;;;9.37;;
2558;SDS011;1289;53.488;10.006;2023-05-25T05:16:21;13.93;;;9.63;;
2558;SDS011;1289;53.488;10.006;2023-05-25T05:18:48;16.77;;;9.07;;
2558;SDS011;1289;53.488;10.006;2023-05-25T05:21:14;12.57;;;8.60;;
2558;SDS011;1289;53.488;10.006;2023-05-25T05:23:41;14.33;;;8.23;;
2558;SDS011;1289;53.488;10.006;2023-05-25T05:26:08;11.43;;;7.20;;
2558;SDS011;1289;53.488;10.006;2023-05-25T05:28:39;9.57;;;6.83;;
2558;SDS011;1289;53.488;10.006;2023-05-25T05:31:07;14.17;;;7.47;;
2558;SDS011;1289;53.488;10.006;2023-05-25T05:33:35;11.43;;;8.87;;
2558;SDS011;1289;53.488;10.006;2023-05-25T05:36:01;11.67;;;7.50;;
2558;SDS011;1289;53.488;10.006;2023-05-25T05:38:29;11.40;;;8.20;;
2558;SDS011;1289;53.488;10.006;2023-05-25T05:40:56;15.40;;;7.20;;
2558;SDS011;1289;53.488;10.006;2023-05-25T05:43:23;14.93;;;7.50;;
2558;SDS011;1289;53.488;10.006;2023-05-25T05:45:49;9.07;;;6.53;;
2558;SDS011;1289;53.488;10.006;2023-05-25T05:48:16;15.80;;;7.37;;
2558;SDS011;1289;53.488;10.006;2023-05-25T05:50:44;13.80;;;6.60;;
2558;SDS011;1289;53.488;10.006;2023-05-25T05:53:12;11.30;;;7.10;;
2558;SDS011;1289;53.488;10.006;2023-05-25T05:55:39;10.13;;;6.53;;
2558;SDS011;1289;53.488;10.006;2023-05-25T05:58:06;16.23;;;6.77;;
2558;SDS011;1289;53.488;10.006;2023-05-25T06:00:32;12.07;;;7.33;;
2558;SDS011;1289;53.488;10.006;2023-05-25T06:02:59;11.57;;;6.90;;
2558;SDS011;1289;53.488;10.006;2023-05-25T06:05:27;10.03;;;6.07;;
2558;SDS011;1289;53.488;10.006;2023-05-25T06:07:56;14.50;;;6.13;;
2558;SDS011;1289;53.488;10.006;2023-05-25T06:10:22;11.43;;;6.80;;
2558;SDS011;1289;53.488;10.006;2023-05-25T06:12:49;13.87;;;6.20;;
2558;SDS011;1289;53.488;10.006;2023-05-25T06:15:17;11.87;;;6.10;;
2558;SDS011;1289;53.488;10.006;2023-05-25T06:17:46;14.73;;;6.87;;
2558;SDS011;1289;53.488;10.006;2023-05-25T06:20:14;13.03;;;6.40;;
2558;SDS011;1289;53.488;10.006;2023-05-25T06:22:41;12.97;;;6.50;;
2558;SDS011;1289;53.488;10.006;2023-05-25T06:25:10;12.27;;;6.30;;
2558;SDS011;1289;53.488;10.006;2023-05-25T06:27:38;12.77;;;6.53;;
2558;SDS011;1289;53.488;10.006;2023-05-25T06:30:05;14.33;;;5.60;;
2558;SDS011;1289;53.488;10.006;2023-05-25T06:32:34;15.63;;;5.93;;
2558;SDS011;1289;53.488;10.006;2023-05-25T06:35:00;14.73;;;7.23;;
2558;SDS011;1289;53.488;10.006;2023-05-25T06:37:27;11.07;;;6.30;;
2558;SDS011;1289;53.488;10.006;2023-05-25T06:40:01;13.93;;;6.23;;
2558;SDS011;1289;53.488;10.006;2023-05-25T06:42:29;15.07;;;6.00;;
2558;SDS011;1289;53.488;10.006;2023-05-25T06:44:56;12.70;;;5.77;;
2558;SDS011;1289;53.488;10.006;2023-05-25T06:47:24;14.70;;;6.43;;
2558;SDS011;1289;53.488;10.006;2023-05-25T06:49:51;10.10;;;5.47;;
2558;SDS011;1289;53.488;10.006;2023-05-25T06:52:17;12.10;;;5.80;;
2558;SDS011;1289;53.488;10.006;2023-05-25T06:54:44;16.90;;;6.57;;
2558;SDS011;1289;53.488;10.006;2023-05-25T06:57:10;17.13;;;6.57;;
2558;SDS011;1289;53.488;10.006;2023-05-25T06:59:38;11.17;;;5.37;;
2558;SDS011;1289;53.488;10.006;2023-05-25T07:02:05;13.63;;;6.47;;
2558;SDS011;1289;53.488;10.006;2023-05-25T07:04:31;11.77;;;6.00;;
2558;SDS011;1289;53.488;10.006;2023-05-25T07:06:58;12.30;;;5.77;;
2558;SDS011;1289;53.488;10.006;2023-05-25T07:09:25;12.20;;;6.27;;
2558;SDS011;1289;53.488;10.006;2023-05-25T07:11:51;12.30;;;5.53;;
2558;SDS011;1289;53.488;10.006;2023-05-25T07:14:18;12.37;;;6.17;;
2558;SDS011;1289;53.488;10.006;2023-05-25T07:16:46;21.07;;;6.37;;
2558;SDS011;1289;53.488;10.006;2023-05-25T07:19:12;15.30;;;6.03;;
2558;SDS011;1289;53.488;10.006;2023-05-25T07:21:39;11.17;;;5.73;;
2558;SDS011;1289;53.488;10.006;2023-05-25T07:24:06;13.00;;;5.73;;
2558;SDS011;1289;53.488;10.006;2023-05-25T07:26:33;10.10;;;5.43;;
2558;SDS011;1289;53.488;10.006;2023-05-25T07:29:00;11.43;;;5.50;;
2558;SDS011;1289;53.488;10.006;2023-05-25T07:31:27;15.77;;;5.40;;
2558;SDS011;1289;53.488;10.006;2023-05-25T07:33:55;11.03;;;5.67;;
2558;SDS011;1289;53.488;10.006;2023-05-25T07:36:21;12.83;;;6.53;;
2558;SDS011;1289;53.488;10.006;2023-05-25T07:38:49;12.73;;;5.10;;
2558;SDS011;1289;53.488;10.006;2023-05-25T07:41:16;13.80;;;5.40;;
2558;SDS011;1289;53.488;10.006;2023-05-25T07:43:43;10.17;;;5.50;;
2558;SDS011;1289;53.488;10.006;2023-05-25T07:46:09;11.40;;;5.63;;
2558;SDS011;1289;53.488;10.006;2023-05-25T07:48:36;13.40;;;6.53;;
2558;SDS011;1289;53.488;10.006;2023-05-25T07:51:04;10.53;;;5.67;;
2558;SDS011;1289;53.488;10.006;2023-05-25T07:53:31;9.40;;;6.17;;
2558;SDS011;1289;53.488;10.006;2023-05-25T07:55:57;13.00;;;5.90;;
2558;SDS011;1289;53.488;10.006;2023-05-25T07:58:24;11.80;;;5.40;;
2558;SDS011;1289;53.488;10.006;2023-05-25T08:00:51;12.83;;;6.40;;
2558;SDS011;1289;53.488;10.006;2023-05-25T08:03:18;11.83;;;6.50;;
2558;SDS011;1289;53.488;10.006;2023-05-25T08:05:45;11.50;;;5.50;;
2558;SDS011;1289;53.488;10.006;2023-05-25T08:08:13;10.47;;;6.20;;
2558;SDS011;1289;53.488;10.006;2023-05-25T08:10:40;9.23;;;5.40;;
2558;SDS011;1289;53.488;10.006;2023-05-25T08:13:06;8.67;;;6.13;;
2558;SDS011;1289;53.488;10.006;2023-05-25T08:15:33;14.80;;;5.90;;
2558;SDS011;1289;53.488;10.006;2023-05-25T08:17:59;9.93;;;5.57;;
2558;SDS011;1289;53.488;10.006;2023-05-25T08:20:28;9.40;;;5.37;;
2558;SDS011;1289;53.488;10.006;2023-05-25T08:22:55;9.50;;;5.03;;
2558;SDS011;1289;53.488;10.006;2023-05-25T08:25:24;9.07;;;5.73;;
2558;SDS011;1289;53.488;10.006;2023-05-25T08:27:51;9.63;;;5.80;;
2558;SDS011;1289;53.488;10.006;2023-05-25T08:30:17;11.70;;;6.20;;
2558;SDS011;1289;53.488;10.006;2023-05-25T08:32:44;8.60;;;6.10;;
2558;SDS011;1289;53.488;10.006;2023-05-25T08:35:11;9.57;;;5.33;;
2558;SDS011;1289;53.488;10.006;2023-05-25T08:37:38;11.00;;;5.70;;
2558;SDS011;1289;53.488;10.006;2023-05-25T08:40:05;8.63;;;5.00;;
2558;SDS011;1289;53.488;10.006;2023-05-25T08:42:34;11.07;;;5.60;;
2558;SDS011;1289;53.488;10.006;2023-05-25T08:45:01;13.73;;;5.03;;
2558;SDS011;1289;53.488;10.006;2023-05-25T08:47:28;10.53;;;5.40;;
2558;SDS011;1289;53.488;10.006;2023-05-25T08:49:57;10.53;;;5.57;;
2558;SDS011;1289;53.488;10.006;2023-05-25T08:52:25;8.10;;;4.97;;
2558;SDS011;1289;53.488;10.006;2023-05-25T08:54:55;9.37;;;4.83;;
2558;SDS011;1289;53.488;10.006;2023-05-25T08:57:24;13.60;;;6.73;;
2558;SDS011;1289;53.488;10.006;2023-05-25T08:59:59;10.60;;;5.33;;
2558;SDS011;1289;53.488;10.006;2023-05-25T09:02:34;11.97;;;6.10;;
2558;SDS011;1289;53.488;10.006;2023-05-25T09:05:04;17.67;;;5.60;;
2558;SDS011;1289;53.488;10.006;2023-05-25T09:07:31;11.60;;;6.33;;
2558;SDS011;1289;53.488;10.006;2023-05-25T09:09:58;10.13;;;5.80;;
2558;SDS011;1289;53.488;10.006;2023-05-25T09:12:26;11.20;;;6.63;;
2558;SDS011;1289;53.488;10.006;2023-05-25T09:14:56;7.57;;;4.93;;
2558;SDS011;1289;53.488;10.006;2023-05-25T09:17:23;10.73;;;6.13;;
2558;SDS011;1289;53.488;10.006;2023-05-25T09:19:50;13.20;;;5.67;;
2558;SDS011;1289;53.488;10.006;2023-05-25T09:22:17;14.70;;;6.90;;
2558;SDS011;1289;53.488;10.006;2023-05-25T09:24:44;11.50;;;5.80;;
2558;SDS011;1289;53.488;10.006;2023-05-25T09:27:10;18.40;;;6.90;;
2558;SDS011;1289;53.488;10.006;2023-05-25T09:29:38;9.97;;;6.37;;
2558;SDS011;1289;53.488;10.006;2023-05-25T09:32:06;8.43;;;5.80;;
2558;SDS011;1289;53.488;10.006;2023-05-25T09:34:33;9.70;;;5.50;;
2558;SDS011;1289;53.488;10.006;2023-05-25T09:36:59;10.50;;;5.50;;
2558;SDS011;1289;53.488;10.006;2023-05-25T09:39:26;19.83;;;5.93;;
2558;SDS011;1289;53.488;10.006;2023-05-25T09:41:53;14.93;;;6.47;;
2558;SDS011;1289;53.488;10.006;2023-05-25T09:44:19;10.80;;;5.80;;
2558;SDS011;1289;53.488;10.006;2023-05-25T09:46:46;12.10;;;5.30;;
2558;SDS011;1289;53.488;10.006;2023-05-25T09:49:14;27.43;;;8.53;;
2558;SDS011;1289;53.488;10.006;2023-05-25T09:51:41;9.73;;;6.23;;
2558;SDS011;1289;53.488;10.006;2023-05-25T09:54:08;10.73;;;5.20;;
2558;SDS011;1289;53.488;10.006;2023-05-25T09:56:35;10.60;;;5.50;;
2558;SDS011;1289;53.488;10.006;2023-05-25T09:59:02;17.10;;;6.57;;
2558;SDS011;1289;53.488;10.006;2023-05-25T10:01:28;16.27;;;6.43;;
2558;SDS011;1289;53.488;10.006;2023-05-25T10:03:57;10.53;;;5.50;;
2558;SDS011;1289;53.488;10.006;2023-05-25T10:06:25;13.17;;;6.40;;
2558;SDS011;1289;53.488;10.006;2023-05-25T10:08:53;12.13;;;6.47;;
2558;SDS011;1289;53.488;10.006;2023-05-25T10:11:22;9.57;;;6.00;;
2558;SDS011;1289;53.488;10.006;2023-05-25T10:13:50;10.43;;;5.57;;
2558;SDS011;1289;53.488;10.006;2023-05-25T10:16:18;10.77;;;6.20;;
2558;SDS011;1289;53.488;10.006;2023-05-25T10:18:50;11.87;;;6.23;;
2558;SDS011;1289;53.488;10.006;2023-05-25T10:21:20;10.80;;;5.70;;
2558;SDS011;1289;53.488;10.006;2023-05-25T10:23:49;10.87;;;5.30;;
2558;SDS011;1289;53.488;10.006;2023-05-25T10:26:18;15.13;;;6.17;;
2558;SDS011;1289;53.488;10.006;2023-05-25T10:28:46;12.53;;;6.40;;
2558;SDS011;1289;53.488;10.006;2023-05-25T10:31:16;10.13;;;5.73;;
2558;SDS011;1289;53.488;10.006;2023-05-25T10:33:44;8.90;;;5.60;;
2558;SDS011;1289;53.488;10.006;2023-05-25T10:36:11;10.27;;;5.13;;
2558;SDS011;1289;53.488;10.006;2023-05-25T10:38:39;16.43;;;5.87;;
2558;SDS011;1289;53.488;10.006;2023-05-25T10:41:08;12.03;;;6.40;;
2558;SDS011;1289;53.488;10.006;2023-05-25T10:43:35;11.37;;;6.47;;
2558;SDS011;1289;53.488;10.006;2023-05-25T10:46:03;11.73;;;6.10;;
2558;SDS011;1289;53.488;10.006;2023-05-25T10:48:36;14.50;;;6.23;;
2558;SDS011;1289;53.488;10.006;2023-05-25T10:51:03;13.80;;;5.97;;
2558;SDS011;1289;53.488;10.006;2023-05-25T10:53:30;14.40;;;8.10;;
2558;SDS011;1289;53.488;10.006;2023-05-25T10:56:00;11.03;;;7.00;;
2558;SDS011;1289;53.488;10.006;2023-05-25T10:58:29;13.30;;;6.37;;
2558;SDS011;1289;53.488;10.006;2023-05-25T11:00:57;12.87;;;6.90;;
2558;SDS011;1289;53.488;10.006;2023-05-25T11:06:13;15.93;;;7.30;;
2558;SDS011;1289;53.488;10.006;2023-05-25T11:08:47;14.73;;;6.57;;
2558;SDS011;1289;53.488;10.006;2023-05-25T11:11:14;11.47;;;6.90;;
2558;SDS011;1289;53.488;10.006;2023-05-25T11:13:43;14.50;;;6.90;;
2558;SDS011;1289;53.488;10.006;2023-05-25T11:16:17;18.50;;;7.33;;
2558;SDS011;1289;53.488;10.006;2023-05-25T11:18:48;12.07;;;6.73;;
2558;SDS011;1289;53.488;10.006;2023-05-25T11:21:16;11.60;;;6.80;;
2558;SDS011;1289;53.488;10.006;2023-05-25T11:23:54;12.63;;;6.27;;
2558;SDS011;1289;53.488;10.006;2023-05-25T11:26:21;15.40;;;5.87;;
2558;SDS011;1289;53.488;10.006;2023-05-25T11:28:51;14.53;;;6.73;;
2558;SDS011;1289;53.488;10.006;2023-05-25T11:31:18;11.13;;;6.50;;
2558;SDS011;1289;53.488;10.006;2023-05-25T11:33:47;11.13;;;6.20;;
2558;SDS011;1289;53.488;10.006;2023-05-25T11:36:16;11.00;;;6.93;;
2558;SDS011;1289;53.488;10.006;2023-05-25T11:38:44;15.83;;;7.70;;
2558;SDS011;1289;53.488;10.006;2023-05-25T11:41:17;14.40;;;7.00;;
2558;SDS011;1289;53.488;10.006;2023-05-25T11:43:44;17.03;;;6.77;;
2558;SDS011;1289;53.488;10.006;2023-05-25T11:46:15;18.10;;;8.50;;
2558;SDS011;1289;53.488;10.006;2023-05-25T11:48:43;14.83;;;7.20;;
2558;SDS011;1289;53.488;10.006;2023-05-25T11:51:10;18.10;;;7.40;;
2558;SDS011;1289;53.488;10.006;2023-05-25T11:53:40;13.53;;;6.80;;
2558;SDS011;1289;53.488;10.006;2023-05-25T11:56:08;10.10;;;6.43;;
2558;SDS011;1289;53.488;10.006;2023-05-25T11:58:35;13.53;;;7.47;;
2558;SDS011;1289;53.488;10.006;2023-05-25T12:01:16;11.87;;;6.60;;
2558;SDS011;1289;53.488;10.006;2023-05-25T12:03:44;18.00;;;7.40;;
2558;SDS011;1289;53.488;10.006;2023-05-25T12:06:26;14.03;;;6.93;;
2558;SDS011;1289;53.488;10.006;2023-05-25T12:08:54;14.33;;;7.50;;
2558;SDS011;1289;53.488;10.006;2023-05-25T12:11:27;13.67;;;7.23;;
2558;SDS011;1289;53.488;10.006;2023-05-25T12:13:54;20.50;;;7.20;;
2558;SDS011;1289;53.488;10.006;2023-05-25T12:16:22;13.93;;;6.77;;
2558;SDS011;1289;53.488;10.006;2023-05-25T12:18:49;17.60;;;6.60;;
2558;SDS011;1289;53.488;10.006;2023-05-25T12:21:16;19.07;;;6.50;;
2558;SDS011;1289;53.488;10.006;2023-05-25T12:23:43;11.40;;;7.07;;
2558;SDS011;1289;53.488;10.006;2023-05-25T12:26:10;16.83;;;7.70;;
2558;SDS011;1289;53.488;10.006;2023-05-25T12:28:38;13.57;;;7.20;;
2558;SDS011;1289;53.488;10.006;2023-05-25T12:31:20;13.70;;;6.90;;
2558;SDS011;1289;53.488;10.006;2023-05-25T12:34:05;14.40;;;7.67;;
2558;SDS011;1289;53.488;10.006;2023-05-25T12:39:31;15.90;;;6.50;;
2558;SDS011;1289;53.488;10.006;2023-05-25T12:41:59;16.27;;;7.87;;
2558;SDS011;1289;53.488;10.006;2023-05-25T12:44:27;12.60;;;6.37;;
2558;SDS011;1289;53.488;10.006;2023-05-25T12:47:08;11.40;;;7.27;;
2558;SDS011;1289;53.488;10.006;2023-05-25T12:49:35;14.17;;;6.50;;
2558;SDS011;1289;53.488;10.006;2023-05-25T12:52:02;13.60;;;6.90;;
2558;SDS011;1289;53.488;10.006;2023-05-25T12:54:33;12.30;;;6.60;;
2558;SDS011;1289;53.488;10.006;2023-05-25T12:57:00;18.43;;;7.30;;
2558;SDS011;1289;53.488;10.006;2023-05-25T12:59:27;18.23;;;7.67;;
2558;SDS011;1289;53.488;10.006;2023-05-25T13:01:56;14.20;;;7.70;;
2558;SDS011;1289;53.488;10.006;2023-05-25T13:04:23;11.40;;;6.70;;
2558;SDS011;1289;53.488;10.006;2023-05-25T13:06:51;16.60;;;7.20;;
2558;SDS011;1289;53.488;10.006;2023-05-25T13:09:18;17.30;;;7.13;;
2558;SDS011;1289;53.488;10.006;2023-05-25T13:11:44;19.33;;;7.63;;
2558;SDS011;1289;53.488;10.006;2023-05-25T13:14:11;16.30;;;6.70;;
2558;SDS011;1289;53.488;10.006;2023-05-25T13:16:37;12.30;;;6.60;;
2558;SDS011;1289;53.488;10.006;2023-05-25T13:19:06;15.80;;;7.63;;
2558;SDS011;1289;53.488;10.006;2023-05-25T13:21:32;14.83;;;7.53;;
2558;SDS011;1289;53.488;10.006;2023-05-25T13:23:59;15.27;;;6.67;;
2558;SDS011;1289;53.488;10.006;2023-05-25T13:26:26;21.40;;;6.93;;
2558;SDS011;1289;53.488;10.006;2023-05-25T13:28:52;14.63;;;6.60;;
2558;SDS011;1289;53.488;10.006;2023-05-25T13:31:19;14.37;;;7.07;;
2558;SDS011;1289;53.488;10.006;2023-05-25T13:33:46;13.20;;;7.20;;
2558;SDS011;1289;53.488;10.006;2023-05-25T13:36:13;20.60;;;6.20;;
2558;SDS011;1289;53.488;10.006;2023-05-25T13:38:40;17.30;;;8.50;;
2558;SDS011;1289;53.488;10.006;2023-05-25T13:41:07;21.23;;;7.33;;
2558;SDS011;1289;53.488;10.006;2023-05-25T13:43:33;21.77;;;7.83;;
2558;SDS011;1289;53.488;10.006;2023-05-25T13:46:00;16.97;;;8.07;;
2558;SDS011;1289;53.488;10.006;2023-05-25T13:48:26;11.97;;;6.47;;
2558;SDS011;1289;53.488;10.006;2023-05-25T13:50:54;15.10;;;6.53;;
2558;SDS011;1289;53.488;10.006;2023-05-25T13:53:22;12.03;;;6.37;;
2558;SDS011;1289;53.488;10.006;2023-05-25T13:55:48;18.30;;;8.10;;
2558;SDS011;1289;53.488;10.006;2023-05-25T13:58:15;16.77;;;7.50;;
2558;SDS011;1289;53.488;10.006;2023-05-25T14:00:41;16.17;;;6.60;;
2558;SDS011;1289;53.488;10.006;2023-05-25T14:03:08;13.07;;;6.30;;
2558;SDS011;1289;53.488;10.006;2023-05-25T14:05:34;12.70;;;7.13;;
2558;SDS011;1289;53.488;10.006;2023-05-25T14:08:01;19.50;;;7.67;;
2558;SDS011;1289;53.488;10.006;2023-05-25T14:10:30;15.80;;;6.20;;
2558;SDS011;1289;53.488;10.006;2023-05-25T14:12:56;13.10;;;6.70;;
2558;SDS011;1289;53.488;10.006;2023-05-25T14:15:23;15.97;;;7.23;;
2558;SDS011;1289;53.488;10.006;2023-05-25T14:17:50;20.70;;;6.70;;
2558;SDS011;1289;53.488;10.006;2023-05-25T14:20:17;15.67;;;7.57;;
2558;SDS011;1289;53.488;10.006;2023-05-25T14:22:49;10.17;;;6.10;;
2558;SDS011;1289;53.488;10.006;2023-05-25T14:25:16;18.47;;;7.70;;
2558;SDS011;1289;53.488;10.006;2023-05-25T14:27:44;17.17;;;7.23;;
2558;SDS011;1289;53.488;10.006;2023-05-25T14:30:10;17.87;;;7.50;;
2558;SDS011;1289;53.488;10.006;2023-05-25T14:32:37;13.57;;;7.07;;
2558;SDS011;1289;53.488;10.006;2023-05-25T14:35:04;14.00;;;6.63;;
2558;SDS011;1289;53.488;10.006;2023-05-25T14:37:31;18.33;;;8.37;;
2558;SDS011;1289;53.488;10.006;2023-05-25T14:39:58;14.93;;;7.47;;
2558;SDS011;1289;53.488;10.006;2023-05-25T14:42:25;19.10;;;7.97;;
2558;SDS011;1289;53.488;10.006;2023-05-25T14:44:53;16.23;;;7.77;;
2558;SDS011;1289;53.488;10.006;2023-05-25T14:47:20;20.53;;;8.20;;
2558;SDS011;1289;53.488;10.006;2023-05-25T14:49:47;14.90;;;7.10;;
2558;SDS011;1289;53.488;10.006;2023-05-25T14:52:13;14.80;;;7.33;;
2558;SDS011;1289;53.488;10.006;2023-05-25T14:54:40;16.77;;;6.90;;
2558;SDS011;1289;53.488;10.006;2023-05-25T14:57:08;17.30;;;7.00;;